createdAt,value
2022-08-07T00:00:25.977Z,102150.81
2022-08-07T00:02:53.751Z,102150.53
2022-08-07T00:05:23.683Z,102150.41
2022-08-07T00:07:58.232Z,102155.13
2022-08-07T00:10:30.920Z,102154.19
2022-08-07T00:13:09.643Z,102148.66
2022-08-07T00:15:51.875Z,102149.22
2022-08-07T00:18:24.255Z,102146.03
2022-08-07T00:20:56.725Z,102142.03
2022-08-07T00:23:24.983Z,102149.69
2022-08-07T00:25:59.205Z,102137.91
2022-08-07T00:28:31.571Z,102142.72
2022-08-07T00:31:12.446Z,102133.97
2022-08-07T00:33:43.578Z,102129.84
2022-08-07T00:36:14.589Z,102128.56
2022-08-07T00:38:43.810Z,102124.97
2022-08-07T00:41:14.714Z,102137.25
2022-08-07T00:43:59.298Z,102136.28
2022-08-07T00:46:30.161Z,102132.66
2022-08-07T00:49:03.851Z,102136.13
2022-08-07T00:51:56.909Z,102128.78
2022-08-07T00:54:19.918Z,102130.06
2022-08-07T00:56:49.908Z,102124.84
2022-08-07T00:59:20.018Z,102134.75
2022-08-07T01:01:59.529Z,102129.84
2022-08-07T01:04:26.478Z,102133.44
2022-08-07T01:06:57.697Z,102131.97
2022-08-07T01:10:06.783Z,102133.72
2022-08-07T01:12:30.177Z,102127.78
2022-08-07T01:15:01.070Z,102122.31
2022-08-07T01:17:31.955Z,102119.28
2022-08-07T01:20:10.020Z,102124.84
2022-08-07T01:22:53.993Z,102117.38
2022-08-07T01:25:55.146Z,102126.69
2022-08-07T01:28:20.144Z,102125.47
2022-08-07T01:30:51.253Z,102119.09
2022-08-07T01:33:20.026Z,102120.53
2022-08-07T01:38:25.880Z,102125.25
2022-08-07T01:41:02.431Z,102119.81
2022-08-07T01:43:34.552Z,102111.91
2022-08-07T01:46:08.153Z,102114.34
2022-08-07T01:48:42.117Z,102113.50
2022-08-07T01:52:01.663Z,102102.00
2022-08-07T01:54:32.608Z,102114.50
2022-08-07T01:57:20.693Z,102110.03
2022-08-07T02:00:00.535Z,102108.44
2022-08-07T02:03:18.524Z,102105.25
2022-08-07T02:05:47.566Z,102102.25
2022-08-07T02:08:23.814Z,102106.09
2022-08-07T02:10:55.028Z,102108.25
2022-08-07T02:13:59.816Z,102099.59
2022-08-07T02:16:19.760Z,102101.59
2022-08-07T02:18:51.276Z,102101.00
2022-08-07T02:21:20.069Z,102099.50
2022-08-07T02:23:49.313Z,102103.22
2022-08-07T02:26:33.857Z,102097.91
2022-08-07T02:29:05.595Z,102096.47
2022-08-07T02:31:42.117Z,102090.47
2022-08-07T02:34:11.461Z,102105.41
2022-08-07T02:36:52.188Z,102100.31
2022-08-07T02:39:43.383Z,102092.97
2022-08-07T02:42:16.294Z,102096.19
2022-08-07T02:44:50.118Z,102101.69
2022-08-07T02:47:23.613Z,102102.38
2022-08-07T02:49:59.613Z,102092.66
2022-08-07T02:52:37.448Z,102108.47
2022-08-07T02:55:27.508Z,102102.63
2022-08-07T02:58:07.918Z,102100.16
2022-08-07T03:00:40.737Z,102088.50
2022-08-07T03:03:22.628Z,102091.59
2022-08-07T03:05:53.569Z,102085.72
2022-08-07T03:08:26.869Z,102087.97
2022-08-07T03:10:59.152Z,102091.69
2022-08-07T03:13:38.746Z,102089.38
2022-08-07T03:16:08.439Z,102096.13
2022-08-07T03:18:36.551Z,102097.25
2022-08-07T03:21:08.648Z,102103.94
2022-08-07T03:24:18.132Z,102105.97
2022-08-07T03:26:32.141Z,102100.06
2022-08-07T03:29:05.276Z,102099.28
2022-08-07T03:31:42.615Z,102107.38
2022-08-07T03:34:18.601Z,102103.88
2022-08-07T03:36:54.308Z,102106.81
2022-08-07T03:39:46.155Z,102114.28
2022-08-07T03:42:14.509Z,102109.56
2022-08-07T03:44:42.365Z,102116.41
2022-08-07T03:47:15.256Z,102112.50
2022-08-07T03:49:48.041Z,102103.22
2022-08-07T03:52:26.120Z,102109.78
2022-08-07T03:55:06.453Z,102108.47
2022-08-07T03:58:33.954Z,102121.09
2022-08-07T04:00:33.808Z,102123.81
2022-08-07T04:03:04.788Z,102115.78
2022-08-07T04:05:40.491Z,102123.19
2022-08-07T04:08:15.841Z,102116.34
2022-08-07T04:10:54.635Z,102123.28
2022-08-07T04:14:10.184Z,102126.94
2022-08-07T04:16:31.499Z,102118.06
2022-08-07T04:19:04.340Z,102123.28
2022-08-07T04:21:58.815Z,102122.50
2022-08-07T04:24:34.125Z,102118.00
2022-08-07T04:27:15.089Z,102126.25
2022-08-07T04:30:01.181Z,102117.38
2022-08-07T04:32:48.427Z,102120.16
2022-08-07T04:35:26.435Z,102125.81
2022-08-07T04:38:03.552Z,102123.66
2022-08-07T04:40:44.068Z,102122.13
2022-08-07T04:44:12.365Z,102126.63
2022-08-07T04:46:59.530Z,102120.28
2022-08-07T04:50:04.211Z,102120.97
2022-08-07T04:52:51.996Z,102123.03
2022-08-07T04:58:12.320Z,102119.63
2022-08-07T05:02:02.418Z,102119.91
2022-08-07T05:04:50.457Z,102121.97
2022-08-07T05:07:29.165Z,102121.25
2022-08-07T05:10:07.808Z,102117.69
2022-08-07T05:12:52.763Z,102119.25
2022-08-07T05:15:35.884Z,102117.97
2022-08-07T05:18:10.445Z,102117.66
2022-08-07T05:20:45.998Z,102127.19
2022-08-07T05:23:20.580Z,102120.59
2022-08-07T05:26:13.518Z,102129.22
2022-08-07T05:28:50.197Z,102118.28
2022-08-07T05:31:24.568Z,102115.13
2022-08-07T05:34:04.731Z,102130.13
2022-08-07T05:36:39.349Z,102123.88
2022-08-07T05:40:07.112Z,102127.94
2022-08-07T05:42:10.156Z,102132.28
2022-08-07T05:44:46.553Z,102139.13
2022-08-07T05:47:37.854Z,102127.19
2022-08-07T05:50:10.193Z,102132.84
2022-08-07T05:52:37.386Z,102131.03
2022-08-07T05:55:10.895Z,102137.63
2022-08-07T05:57:42.853Z,102142.09
2022-08-07T06:00:16.480Z,102137.56
2022-08-07T06:02:53.198Z,102143.06
2022-08-07T06:05:28.543Z,102139.44
2022-08-07T06:08:14.294Z,102142.38
2022-08-07T06:10:51.272Z,102148.00
2022-08-07T06:14:10.689Z,102148.03
2022-08-07T06:16:13.229Z,102157.06
2022-08-07T06:18:42.962Z,102161.75
2022-08-07T06:22:16.133Z,102150.56
2022-08-07T06:24:46.257Z,102151.69
2022-08-07T06:26:47.236Z,102153.81
2022-08-07T06:29:14.725Z,102145.03
2022-08-07T06:31:49.720Z,102138.19
2022-08-07T06:34:20.795Z,102147.56
2022-08-07T06:36:51.809Z,102137.25
2022-08-07T06:40:16.057Z,102136.25
2022-08-07T06:42:37.149Z,102135.34
2022-08-07T06:45:25.472Z,102135.28
2022-08-07T06:47:58.484Z,102122.00
2022-08-07T06:50:43.325Z,102140.91
2022-08-07T06:53:18.572Z,102133.53
2022-08-07T06:56:07.486Z,102132.34
2022-08-07T07:00:11.913Z,102127.94
2022-08-07T07:01:44.079Z,102129.09
2022-08-07T07:04:32.343Z,102126.78
2022-08-07T07:07:02.413Z,102124.72
2022-08-07T07:09:47.246Z,102122.88
2022-08-07T07:12:48.745Z,102113.81
2022-08-07T07:15:32.564Z,102105.06
2022-08-07T07:18:14.666Z,102122.69
2022-08-07T07:21:13.610Z,102129.34
2022-08-07T07:24:06.212Z,102118.34
2022-08-07T07:26:38.024Z,102118.22
2022-08-07T07:29:56.396Z,102114.63
2022-08-07T07:32:10.397Z,102120.38
2022-08-07T07:34:43.942Z,102109.25
2022-08-07T07:37:21.848Z,102103.09
2022-08-07T07:40:10.401Z,102096.59
2022-08-07T07:42:51.060Z,102092.66
2022-08-07T07:46:38.199Z,102089.44
2022-08-07T07:48:34.847Z,102087.38
2022-08-07T07:51:07.940Z,102088.72
2022-08-07T07:53:44.629Z,102086.38
2022-08-07T07:56:30.458Z,102097.16
2022-08-07T07:59:02.198Z,102084.75
2022-08-07T08:02:03.512Z,102089.59
2022-08-07T08:04:20.303Z,102074.06
2022-08-07T08:06:54.367Z,102087.34
2022-08-07T08:09:29.230Z,102076.94
2022-08-07T08:12:02.577Z,102075.94
2022-08-07T08:14:36.200Z,102081.38
2022-08-07T08:17:56.614Z,102065.72
2022-08-07T08:20:17.303Z,102075.50
2022-08-07T08:23:10.426Z,102067.47
2022-08-07T08:26:04.579Z,102063.75
2022-08-07T08:28:44.866Z,102066.03
2022-08-07T08:31:30.205Z,102062.19
2022-08-07T08:34:09.718Z,102066.16
2022-08-07T08:36:41.218Z,102059.41
2022-08-07T08:39:15.420Z,102060.59
2022-08-07T08:41:59.387Z,102054.09
2022-08-07T08:45:05.958Z,102052.56
2022-08-07T08:48:10.680Z,102049.69
2022-08-07T08:50:45.214Z,102044.47
2022-08-07T08:53:26.459Z,102054.16
2022-08-07T08:56:06.403Z,102058.16
2022-08-07T08:58:54.303Z,102054.34
2022-08-07T09:01:43.924Z,102050.91
2022-08-07T09:04:30.355Z,102050.56
2022-08-07T09:07:45.926Z,102055.16
2022-08-07T09:10:28.233Z,102057.94
2022-08-07T09:13:18.915Z,102052.75
2022-08-07T09:16:25.228Z,102053.97
2022-08-07T09:18:58.455Z,102057.22
2022-08-07T09:21:34.306Z,102060.81
2022-08-07T09:24:55.099Z,102059.72
2022-08-07T09:28:01.219Z,102050.00
2022-08-07T09:31:01.535Z,102056.19
2022-08-07T09:34:00.510Z,102047.19
2022-08-07T09:36:43.087Z,102043.72
2022-08-07T09:39:54.794Z,102032.56
2022-08-07T09:42:38.812Z,102021.06
2022-08-07T09:47:24.545Z,102033.00
2022-08-07T09:50:02.933Z,102023.91
2022-08-07T09:52:16.639Z,102026.00
2022-08-07T09:55:29.063Z,102011.78
2022-08-07T09:58:18.757Z,102015.19
2022-08-07T10:01:51.245Z,102008.75
2022-08-07T10:04:32.769Z,102011.13
2022-08-07T10:07:53.644Z,101995.47
2022-08-07T10:11:59.222Z,101995.19
2022-08-07T10:14:30.139Z,101987.09
2022-08-07T10:17:18.698Z,101985.31
2022-08-07T10:20:32.241Z,101992.53
2022-08-07T10:24:05.281Z,101981.28
2022-08-07T10:27:06.683Z,101977.69
2022-08-07T10:30:06.511Z,101981.63
2022-08-07T10:33:15.346Z,101981.56
2022-08-07T10:36:12.975Z,101976.66
2022-08-07T10:39:06.083Z,101963.09
2022-08-07T10:42:00.411Z,101969.56
2022-08-07T10:45:01.562Z,101963.34
2022-08-07T10:48:09.716Z,101956.81
2022-08-07T10:50:50.418Z,101955.84
2022-08-07T10:54:12.210Z,101949.22
2022-08-07T10:57:07.358Z,101949.03
2022-08-07T11:00:04.731Z,101956.94
2022-08-07T11:02:42.413Z,101941.28
2022-08-07T11:05:35.667Z,101939.94
2022-08-07T11:08:45.825Z,101942.44
2022-08-07T11:12:02.382Z,101941.59
2022-08-07T11:15:03.220Z,101935.00
2022-08-07T11:17:48.569Z,101932.75
2022-08-07T11:20:24.610Z,101933.00
2022-08-07T11:23:26.178Z,101934.84
2022-08-07T11:26:06.709Z,101928.59
2022-08-07T11:28:53.420Z,101929.28
2022-08-07T11:31:37.627Z,101920.53
2022-08-07T11:34:29.644Z,101915.19
2022-08-07T11:37:24.332Z,101909.53
2022-08-07T11:40:39.464Z,101900.41
2022-08-07T11:43:16.726Z,101896.47
2022-08-07T11:46:48.778Z,101899.88
2022-08-07T11:50:18.741Z,101896.13
2022-08-07T11:53:25.338Z,101898.56
2022-08-07T11:56:27.555Z,101891.97
2022-08-07T12:00:12.652Z,101883.72
2022-08-07T12:02:55.403Z,101885.47
2022-08-07T12:05:48.885Z,101872.78
2022-08-07T12:08:34.735Z,101884.25
2022-08-07T12:11:22.468Z,101873.25
2022-08-07T12:14:02.098Z,101870.28
2022-08-07T12:16:35.326Z,101867.94
2022-08-07T12:19:35.361Z,101882.38
2022-08-07T12:23:02.366Z,101871.19
2022-08-07T12:26:05.989Z,101878.56
2022-08-07T12:29:38.401Z,101870.69
2022-08-07T12:32:42.589Z,101873.69
2022-08-07T12:35:13.617Z,101866.44
2022-08-07T12:38:09.805Z,101861.28
2022-08-07T12:40:47.446Z,101867.91
2022-08-07T12:44:02.378Z,101859.94
2022-08-07T12:46:58.113Z,101866.31
2022-08-07T12:50:38.460Z,101858.69
2022-08-07T12:53:19.197Z,101858.59
2022-08-07T12:56:09.784Z,101858.09
2022-08-07T12:58:46.805Z,101862.59
2022-08-07T13:01:33.520Z,101847.84
2022-08-07T13:04:05.043Z,101848.09
2022-08-07T13:07:09.308Z,101849.13
2022-08-07T13:10:37.646Z,101845.66
2022-08-07T13:13:47.254Z,101836.91
2022-08-07T13:16:44.383Z,101843.25
2022-08-07T13:19:50.658Z,101842.72
2022-08-07T13:22:31.403Z,101839.09
2022-08-07T13:25:29.854Z,101835.38
2022-08-07T13:28:14.341Z,101827.94
2022-08-07T13:31:02.036Z,101824.56
2022-08-07T13:34:32.697Z,101830.91
2022-08-07T13:37:28.036Z,101824.91
2022-08-07T13:40:36.405Z,101818.09
2022-08-07T13:43:13.657Z,101812.91
2022-08-07T13:46:12.454Z,101815.31
2022-08-07T13:48:39.296Z,101814.66
2022-08-07T13:51:27.329Z,101804.25
2022-08-07T13:54:04.121Z,101809.56
2022-08-07T13:56:40.868Z,101804.84
2022-08-07T13:59:25.493Z,101799.53
2022-08-07T14:02:07.647Z,101799.75
2022-08-07T14:04:54.612Z,101795.03
2022-08-07T14:07:31.839Z,101797.97
2022-08-07T14:10:20.503Z,101793.47
2022-08-07T14:13:03.753Z,101791.97
2022-08-07T14:15:44.833Z,101795.38
2022-08-07T14:18:56.725Z,101795.16
2022-08-07T14:22:00.921Z,101787.28
2022-08-07T14:24:42.634Z,101804.00
2022-08-07T14:28:09.372Z,101801.22
2022-08-07T14:32:59.921Z,101783.84
2022-08-07T14:35:43.049Z,101786.63
2022-08-07T14:38:26.807Z,101783.44
2022-08-07T14:41:03.946Z,101785.19
2022-08-07T14:43:58.741Z,101779.16
2022-08-07T14:49:17.376Z,101774.53
2022-08-07T14:52:03.212Z,101768.53
2022-08-07T14:54:35.900Z,101771.16
2022-08-07T14:57:18.811Z,101767.91
2022-08-07T15:00:05.709Z,101762.81
2022-08-07T15:02:35.199Z,101772.59
2022-08-07T15:07:52.795Z,101776.16
2022-08-07T15:13:22.406Z,101771.44
2022-08-07T15:15:58.039Z,101768.69
2022-08-07T15:18:41.606Z,101766.34
2022-08-07T15:21:58.395Z,101766.00
2022-08-07T15:25:12.960Z,101774.34
2022-08-07T15:27:17.844Z,101769.84
2022-08-07T15:30:04.384Z,101769.22
2022-08-07T15:32:51.086Z,101764.72
2022-08-07T15:36:00.759Z,101762.94
2022-08-07T15:38:51.866Z,101767.13
2022-08-07T15:44:15.347Z,101761.75
2022-08-07T15:46:52.087Z,101745.59
2022-08-07T15:50:04.119Z,101743.91
2022-08-07T15:52:29.620Z,101742.41
2022-08-07T15:55:02.269Z,101740.72
2022-08-07T15:57:41.129Z,101746.41
2022-08-07T16:00:31.938Z,101736.88
2022-08-07T16:03:20.945Z,101745.41
2022-08-07T16:05:51.019Z,101738.38
2022-08-07T16:08:33.333Z,101738.56
2022-08-07T16:11:26.326Z,101736.00
2022-08-07T16:14:11.947Z,101734.28
2022-08-07T16:18:02.639Z,101736.66
2022-08-07T16:20:38.777Z,101740.53
2022-08-07T16:23:53.947Z,101738.38
2022-08-07T16:26:31.126Z,101735.16
2022-08-07T16:29:18.427Z,101737.06
2022-08-07T16:32:33.209Z,101733.03
2022-08-07T16:35:51.579Z,101728.72
2022-08-07T16:39:00.614Z,101725.50
2022-08-07T16:41:57.192Z,101727.41
2022-08-07T16:45:14.690Z,101730.38
2022-08-07T16:48:27.619Z,101730.47
2022-08-07T16:52:01.893Z,101730.81
2022-08-07T16:55:08.509Z,101740.91
2022-08-07T16:58:01.863Z,101733.59
2022-08-07T17:01:01.337Z,101736.78
2022-08-07T17:03:59.547Z,101738.13
2022-08-07T17:07:03.024Z,101729.06
2022-08-07T17:10:08.284Z,101735.16
2022-08-07T17:13:17.945Z,101733.84
2022-08-07T17:15:57.154Z,101730.84
2022-08-07T17:19:23.966Z,101730.03
2022-08-07T17:22:29.982Z,101736.34
2022-08-07T17:25:20.193Z,101738.59
2022-08-07T17:28:19.578Z,101734.50
2022-08-07T17:31:16.020Z,101735.50
2022-08-07T17:34:33.027Z,101736.19
2022-08-07T17:37:09.851Z,101728.38
2022-08-07T17:40:19.069Z,101738.03
2022-08-07T17:43:18.180Z,101725.97
2022-08-07T17:45:56.467Z,101732.38
2022-08-07T17:48:42.339Z,101731.25
2022-08-07T17:51:59.882Z,101728.97
2022-08-07T17:54:53.488Z,101729.91
2022-08-07T17:57:58.939Z,101726.59
2022-08-07T18:00:34.756Z,101729.44
2022-08-07T18:03:28.722Z,101723.91
2022-08-07T18:06:37.046Z,101724.38
2022-08-07T18:09:08.626Z,101729.63
2022-08-07T18:12:07.731Z,101723.16
2022-08-07T18:15:00.910Z,101726.25
2022-08-07T18:18:46.315Z,101731.28
2022-08-07T18:21:11.033Z,101729.19
2022-08-07T18:24:07.502Z,101738.22
2022-08-07T18:27:07.274Z,101730.88
2022-08-07T18:30:32.691Z,101736.75
2022-08-07T18:33:38.785Z,101738.88
2022-08-07T18:36:54.360Z,101746.28
2022-08-07T18:40:07.536Z,101746.47
2022-08-07T18:43:12.059Z,101736.44
2022-08-07T18:46:43.232Z,101741.94
2022-08-07T18:50:29.915Z,101752.50
2022-08-07T18:52:55.109Z,101749.63
2022-08-07T18:55:57.367Z,101756.06
2022-08-07T18:58:43.034Z,101754.53
2022-08-07T19:02:34.050Z,101760.78
2022-08-07T19:04:57.495Z,101758.72
2022-08-07T19:07:51.664Z,101763.94
2022-08-07T19:10:51.596Z,101764.47
2022-08-07T19:13:55.455Z,101776.25
2022-08-07T19:17:04.989Z,101772.84
2022-08-07T19:19:53.839Z,101776.50
2022-08-07T19:22:44.817Z,101775.50
2022-08-07T19:26:21.894Z,101775.53
2022-08-07T19:30:56.917Z,101774.69
2022-08-07T19:31:37.072Z,101780.75
2022-08-07T19:34:08.676Z,101792.81
2022-08-07T19:36:43.679Z,101790.91
2022-08-07T19:39:56.514Z,101797.13
2022-08-07T19:42:24.636Z,101799.56
2022-08-07T19:44:55.467Z,101795.44
2022-08-07T19:47:31.156Z,101805.25
2022-08-07T19:50:43.643Z,101803.06
2022-08-07T19:52:59.201Z,101805.34
2022-08-07T19:55:57.834Z,101813.75
2022-08-07T19:58:27.965Z,101806.53
2022-08-07T20:00:57.615Z,101810.41
2022-08-07T20:03:34.145Z,101797.63
2022-08-07T20:06:06.928Z,101812.59
2022-08-07T20:08:48.838Z,101805.75
2022-08-07T20:11:34.232Z,101811.50
2022-08-07T20:14:13.528Z,101807.94
2022-08-07T20:16:48.353Z,101815.88
2022-08-07T20:19:25.177Z,101807.50
2022-08-07T20:21:57.827Z,101821.66
2022-08-07T20:24:34.393Z,101820.03
2022-08-07T20:27:07.371Z,101819.66
2022-08-07T20:29:47.872Z,101816.53
2022-08-07T20:32:42.767Z,101826.38
2022-08-07T20:35:26.258Z,101824.75
2022-08-07T20:37:58.901Z,101823.22
2022-08-07T20:40:34.588Z,101831.06
2022-08-07T20:43:09.620Z,101824.47
2022-08-07T20:46:28.048Z,101833.31
2022-08-07T20:48:34.652Z,101822.94
2022-08-07T20:51:09.605Z,101831.94
2022-08-07T20:54:03.196Z,101828.75
2022-08-07T20:56:29.518Z,101827.38
2022-08-07T20:59:02.149Z,101831.28
2022-08-07T21:01:46.024Z,101830.28
2022-08-07T21:04:22.216Z,101832.91
2022-08-07T21:06:56.818Z,101828.56
2022-08-07T21:09:35.401Z,101832.72
2022-08-07T21:12:29.148Z,101825.44
2022-08-07T21:15:03.832Z,101827.22
2022-08-07T21:18:02.674Z,101835.88
2022-08-07T21:20:26.862Z,101833.63
2022-08-07T21:23:07.354Z,101832.19
2022-08-07T21:26:26.957Z,101836.53
2022-08-07T21:29:15.681Z,101834.84
2022-08-07T21:32:44.057Z,101833.72
2022-08-07T21:35:10.800Z,101835.31
2022-08-07T21:37:58.324Z,101838.03
2022-08-07T21:41:09.560Z,101834.44
2022-08-07T21:43:57.475Z,101837.75
2022-08-07T21:46:43.608Z,101847.97
2022-08-07T21:50:01.100Z,101843.34
2022-08-07T21:52:48.065Z,101852.41
2022-08-07T21:55:28.171Z,101846.66
2022-08-07T21:58:45.759Z,101840.91
2022-08-07T22:02:07.174Z,101846.94
2022-08-07T22:04:32.013Z,101852.91
2022-08-07T22:07:06.818Z,101851.66
2022-08-07T22:09:54.117Z,101855.78
2022-08-07T22:12:34.950Z,101841.28
2022-08-07T22:16:45.175Z,101851.44
2022-08-07T22:18:06.488Z,101860.53
2022-08-07T22:20:52.772Z,101857.31
2022-08-07T22:23:43.663Z,101851.72
2022-08-07T22:26:31.004Z,101858.59
2022-08-07T22:29:33.884Z,101858.28
2022-08-07T22:32:37.079Z,101854.50
2022-08-07T22:35:11.270Z,101846.16
2022-08-07T22:38:02.931Z,101858.81
2022-08-07T22:40:54.770Z,101866.66
2022-08-07T22:43:47.460Z,101864.34
2022-08-07T22:47:04.431Z,101871.22
2022-08-07T22:50:04.293Z,101878.47
2022-08-07T22:52:40.301Z,101867.81
2022-08-07T22:55:47.509Z,101884.72
2022-08-07T22:58:34.399Z,101881.94
2022-08-07T23:01:50.355Z,101888.03
2022-08-07T23:04:58.221Z,101880.28
2022-08-07T23:07:53.035Z,101885.88
2022-08-07T23:11:27.119Z,101884.00
2022-08-07T23:14:40.743Z,101889.44
2022-08-07T23:18:12.564Z,101884.38
2022-08-07T23:21:06.601Z,101887.25
2022-08-07T23:24:50.643Z,101879.22
2022-08-07T23:28:22.773Z,101881.47
2022-08-07T23:31:06.685Z,101881.00
2022-08-07T23:34:33.888Z,101880.34
2022-08-07T23:37:29.248Z,101887.69
2022-08-07T23:40:17.923Z,101889.47
2022-08-07T23:43:16.664Z,101876.72
2022-08-07T23:46:02.299Z,101876.50
2022-08-07T23:48:58.982Z,101879.00
2022-08-07T23:53:00.257Z,101879.81
2022-08-07T23:54:52.783Z,101880.56
2022-08-07T23:57:44.259Z,101884.75
